createdAt,value
2019-06-26T00:02:10.346Z,99849.36
2019-06-26T00:04:44.030Z,99840.79
2019-06-26T00:07:15.936Z,99837.44
2019-06-26T00:09:49.694Z,99835.46
2019-06-26T00:12:21.631Z,99828.22
2019-06-26T00:14:53.526Z,99836.36
2019-06-26T00:17:25.446Z,99836.45
2019-06-26T00:19:57.432Z,99831.63
2019-06-26T00:22:29.943Z,99834.23
2019-06-26T00:25:03.677Z,99838.08
2019-06-26T00:27:35.633Z,99838.02
2019-06-26T00:30:07.954Z,99840.30
2019-06-26T00:32:40.016Z,99843.52
2019-06-26T00:35:12.632Z,99841.92
2019-06-26T00:37:44.590Z,99843.48
2019-06-26T00:40:17.082Z,99833.59
2019-06-26T00:42:53.262Z,99832.20
2019-06-26T00:45:25.142Z,99833.13
2019-06-26T00:47:57.122Z,99834.39
2019-06-26T00:50:29.039Z,99838.54
2019-06-26T00:53:02.225Z,99837.45
2019-06-26T00:55:36.360Z,99832.99
2019-06-26T00:58:09.734Z,99834.98
2019-06-26T01:00:45.992Z,99822.16
2019-06-26T01:03:17.956Z,99812.70
2019-06-26T01:05:49.877Z,99814.07
2019-06-26T01:08:21.804Z,99812.53
2019-06-26T01:10:53.711Z,99813.53
2019-06-26T01:13:25.680Z,99808.13
2019-06-26T01:15:59.339Z,99801.38
2019-06-26T01:18:31.258Z,99808.89
2019-06-26T01:21:04.803Z,99815.30
2019-06-26T01:23:36.831Z,99817.05
2019-06-26T01:26:10.786Z,99805.42
2019-06-26T01:28:42.764Z,99806.61
2019-06-26T01:31:14.746Z,99805.30
2019-06-26T01:33:46.655Z,99803.48
2019-06-26T01:36:19.810Z,99803.34
2019-06-26T01:38:53.660Z,99801.72
2019-06-26T01:41:25.583Z,99795.98
2019-06-26T01:44:13.361Z,99788.73
2019-06-26T01:46:31.154Z,99787.14
2019-06-26T01:49:03.159Z,99782.27
2019-06-26T01:51:35.082Z,99782.73
2019-06-26T01:54:07.009Z,99793.42
2019-06-26T01:56:38.943Z,99782.98
2019-06-26T01:59:12.730Z,99785.66
2019-06-26T02:01:44.659Z,99792.82
2019-06-26T02:04:17.697Z,99796.98
2019-06-26T02:06:49.602Z,99783.84
2019-06-26T02:09:21.535Z,99777.46
2019-06-26T02:11:53.578Z,99787.30
2019-06-26T02:14:31.409Z,99780.23
2019-06-26T02:17:01.007Z,99780.08
2019-06-26T02:19:33.769Z,99778.80
2019-06-26T02:22:05.986Z,99777.83
2019-06-26T02:24:37.963Z,99775.41
2019-06-26T02:27:09.896Z,99772.79
2019-06-26T02:29:41.872Z,99771.83
2019-06-26T02:32:13.816Z,99770.41
2019-06-26T02:34:46.123Z,99768.72
2019-06-26T02:37:18.052Z,99763.77
2019-06-26T02:39:50.044Z,99763.82
2019-06-26T02:42:21.983Z,99761.62
2019-06-26T02:44:54.675Z,99766.88
2019-06-26T02:47:26.818Z,99755.45
2019-06-26T02:49:59.528Z,99750.55
2019-06-26T02:52:31.506Z,99753.62
2019-06-26T02:55:03.606Z,99758.32
2019-06-26T02:57:35.682Z,99763.83
2019-06-26T03:00:08.183Z,99762.41
2019-06-26T03:02:40.084Z,99756.05
2019-06-26T03:05:13.403Z,99763.41
2019-06-26T03:07:45.426Z,99756.44
2019-06-26T03:10:17.903Z,99751.88
2019-06-26T03:12:49.917Z,99751.28
2019-06-26T03:15:22.007Z,99754.30
2019-06-26T03:17:55.579Z,99761.08
2019-06-26T03:20:30.492Z,99760.14
2019-06-26T03:23:04.220Z,99757.48
2019-06-26T03:25:36.167Z,99758.08
2019-06-26T03:28:08.304Z,99757.38
2019-06-26T03:30:40.222Z,99755.27
2019-06-26T03:33:12.216Z,99762.13
2019-06-26T03:35:44.153Z,99753.69
2019-06-26T03:38:16.515Z,99744.44
2019-06-26T03:40:49.154Z,99750.25
2019-06-26T03:43:21.196Z,99746.22
2019-06-26T03:45:53.198Z,99743.88
2019-06-26T03:48:25.134Z,99751.52
2019-06-26T03:50:58.965Z,99753.08
2019-06-26T03:53:32.522Z,99749.70
2019-06-26T03:56:05.862Z,99749.00
2019-06-26T03:58:37.782Z,99759.92
2019-06-26T04:01:09.709Z,99755.20
2019-06-26T04:03:42.109Z,99755.59
2019-06-26T04:06:15.151Z,99750.09
2019-06-26T04:08:47.183Z,99753.94
2019-06-26T04:11:19.108Z,99752.75
2019-06-26T04:13:51.116Z,99743.03
2019-06-26T04:16:23.040Z,99741.75
2019-06-26T04:18:54.991Z,99756.45
2019-06-26T04:21:26.918Z,99755.50
2019-06-26T04:23:58.880Z,99750.34
2019-06-26T04:26:30.821Z,99740.44
2019-06-26T04:29:04.424Z,99744.58
2019-06-26T04:31:36.494Z,99750.09
2019-06-26T04:34:10.088Z,99748.81
2019-06-26T04:36:42.179Z,99751.09
2019-06-26T04:39:14.094Z,99758.25
2019-06-26T04:41:46.015Z,99765.80
2019-06-26T04:44:17.971Z,99780.77
2019-06-26T04:46:49.987Z,99788.88
2019-06-26T04:49:21.897Z,99803.47
2019-06-26T04:51:53.840Z,99807.48
2019-06-26T04:54:25.754Z,99808.61
2019-06-26T04:56:58.004Z,99805.84
2019-06-26T04:59:30.162Z,99805.46
2019-06-26T05:02:02.091Z,99812.48
2019-06-26T05:04:34.012Z,99810.19
2019-06-26T05:07:06.981Z,99812.47
2019-06-26T05:09:39.034Z,99814.01
2019-06-26T05:12:10.976Z,99817.91
2019-06-26T05:14:42.970Z,99828.73
2019-06-26T05:17:14.900Z,99834.31
2019-06-26T05:19:46.874Z,99828.87
2019-06-26T05:22:18.810Z,99834.07
2019-06-26T05:24:50.774Z,99834.31
2019-06-26T05:27:22.692Z,99830.78
2019-06-26T05:29:54.763Z,99835.30
2019-06-26T05:32:28.302Z,99836.56
2019-06-26T05:35:00.287Z,99826.54
2019-06-26T05:37:32.348Z,99836.98
2019-06-26T05:40:07.974Z,99848.06
2019-06-26T05:42:40.097Z,99843.61
2019-06-26T05:45:13.008Z,99856.78
2019-06-26T05:47:45.077Z,99855.53
2019-06-26T05:50:18.725Z,99857.85
2019-06-26T05:52:50.683Z,99856.58
2019-06-26T05:55:22.602Z,99860.45
2019-06-26T05:57:56.511Z,99863.42
2019-06-26T06:00:28.577Z,99875.65
2019-06-26T06:03:00.500Z,99865.55
2019-06-26T06:05:33.772Z,99870.98
2019-06-26T06:08:05.677Z,99874.74
2019-06-26T06:10:38.877Z,99877.69
2019-06-26T06:13:10.791Z,99873.25
2019-06-26T06:15:42.757Z,99873.23
2019-06-26T06:18:14.661Z,99879.13
2019-06-26T06:20:46.653Z,99874.69
2019-06-26T06:23:18.643Z,99876.05
2019-06-26T06:25:50.553Z,99884.72
2019-06-26T06:28:22.806Z,99892.13
2019-06-26T06:30:54.843Z,99891.63
2019-06-26T06:33:27.244Z,99892.72
2019-06-26T06:36:00.835Z,99895.13
2019-06-26T06:38:32.750Z,99896.19
2019-06-26T06:41:05.840Z,99891.89
2019-06-26T06:43:39.336Z,99907.92
2019-06-26T06:46:11.303Z,99898.26
2019-06-26T06:48:44.642Z,99909.59
2019-06-26T06:51:16.614Z,99913.34
2019-06-26T06:53:48.537Z,99925.70
2019-06-26T06:56:20.492Z,99923.80
2019-06-26T06:58:52.398Z,99925.05
2019-06-26T07:01:24.442Z,99924.50
2019-06-26T07:03:56.378Z,99927.92
2019-06-26T07:06:28.428Z,99930.30
2019-06-26T07:09:00.476Z,99932.88
2019-06-26T07:11:33.613Z,99925.91
2019-06-26T07:14:05.740Z,99939.31
2019-06-26T07:16:38.649Z,99944.02
2019-06-26T07:19:10.613Z,99947.73
2019-06-26T07:21:42.546Z,99946.16
2019-06-26T07:24:15.476Z,99949.25
2019-06-26T07:26:47.407Z,99945.05
2019-06-26T07:29:19.414Z,99949.78
2019-06-26T07:31:51.339Z,99945.90
2019-06-26T07:34:23.433Z,99947.33
2019-06-26T07:36:55.595Z,99952.03
2019-06-26T07:39:29.380Z,99960.16
2019-06-26T07:42:03.066Z,99968.13
2019-06-26T07:44:35.337Z,99973.12
2019-06-26T07:47:21.802Z,99980.53
2019-06-26T07:49:40.984Z,99983.38
2019-06-26T07:52:12.951Z,99985.83
2019-06-26T07:54:44.889Z,99983.44
2019-06-26T07:57:16.801Z,99986.25
2019-06-26T07:59:50.366Z,99986.55
2019-06-26T08:02:23.026Z,99986.02
2019-06-26T08:04:54.982Z,99987.70
2019-06-26T08:07:30.718Z,99990.57
2019-06-26T08:10:03.542Z,99990.94
2019-06-26T08:12:35.476Z,100002.25
2019-06-26T08:15:07.904Z,100002.05
2019-06-26T08:17:40.221Z,99997.90
2019-06-26T08:20:12.419Z,100006.02
2019-06-26T08:22:44.341Z,100011.73
2019-06-26T08:25:17.469Z,100009.51
2019-06-26T08:27:49.581Z,100012.25
2019-06-26T08:30:22.507Z,100012.47
2019-06-26T08:32:54.446Z,100014.53
2019-06-26T08:35:26.437Z,100011.14
2019-06-26T08:38:09.973Z,100018.97
2019-06-26T08:40:32.107Z,100022.14
2019-06-26T08:43:06.575Z,100024.13
2019-06-26T08:45:38.561Z,100018.31
2019-06-26T08:48:19.334Z,100026.95
2019-06-26T08:50:44.351Z,100025.33
2019-06-26T08:53:16.269Z,100025.09
2019-06-26T08:55:50.303Z,100027.97
2019-06-26T08:58:22.886Z,100025.64
2019-06-26T09:00:54.964Z,100033.17
2019-06-26T09:03:27.106Z,100025.44
2019-06-26T09:05:59.184Z,100030.94
2019-06-26T09:08:31.267Z,100029.48
2019-06-26T09:11:04.901Z,100031.20
2019-06-26T09:13:36.886Z,100031.19
2019-06-26T09:16:10.443Z,100030.60
2019-06-26T09:18:42.355Z,100034.22
2019-06-26T09:21:14.385Z,100029.44
2019-06-26T09:23:47.966Z,100039.83
2019-06-26T09:26:19.943Z,100032.69
2019-06-26T09:31:22.498Z,100033.80
2019-06-26T09:33:55.033Z,100041.48
2019-06-26T09:36:27.118Z,100039.16
2019-06-26T09:38:59.057Z,100037.44
2019-06-26T09:41:31.017Z,100041.49
2019-06-26T09:44:03.315Z,100041.23
2019-06-26T09:46:35.285Z,100041.81
2019-06-26T09:49:07.236Z,100040.11
2019-06-26T09:51:39.159Z,100037.27
2019-06-26T09:54:12.229Z,100036.40
2019-06-26T09:56:44.168Z,100040.98
2019-06-26T09:59:16.169Z,100042.03
2019-06-26T10:01:48.144Z,100040.27
2019-06-26T10:04:20.056Z,100037.22
2019-06-26T10:06:51.977Z,100048.34
2019-06-26T10:09:23.965Z,100045.55
2019-06-26T10:11:57.787Z,100045.96
2019-06-26T10:14:46.562Z,100047.54
2019-06-26T10:17:06.305Z,100045.24
2019-06-26T10:19:38.557Z,100050.39
2019-06-26T10:22:10.578Z,100049.07
2019-06-26T10:24:42.684Z,100062.06
2019-06-26T10:27:14.653Z,100056.81
2019-06-26T10:29:46.589Z,100054.56
2019-06-26T10:32:18.558Z,100056.19
2019-06-26T10:34:51.244Z,100057.02
2019-06-26T10:37:24.851Z,100060.02
2019-06-26T10:39:56.772Z,100061.48
2019-06-26T10:42:28.762Z,100068.56
2019-06-26T10:45:00.738Z,100065.38
2019-06-26T10:47:34.477Z,100065.89
2019-06-26T10:50:07.242Z,100064.67
2019-06-26T10:52:39.308Z,100058.73
2019-06-26T10:55:12.296Z,100062.84
2019-06-26T10:57:44.247Z,100063.41
2019-06-26T11:00:17.143Z,100060.52
2019-06-26T11:02:49.076Z,100059.14
2019-06-26T11:05:21.270Z,100062.09
2019-06-26T11:07:53.223Z,100055.02
2019-06-26T11:10:25.578Z,100058.42
2019-06-26T11:12:58.917Z,100051.16
2019-06-26T11:15:32.457Z,100051.16
2019-06-26T11:18:04.559Z,100046.83
2019-06-26T11:20:36.473Z,100047.23
2019-06-26T11:23:08.379Z,100046.23
2019-06-26T11:25:44.148Z,100053.27
2019-06-26T11:28:14.101Z,100052.95
2019-06-26T11:30:47.773Z,100057.89
2019-06-26T11:33:20.148Z,100059.03
2019-06-26T11:35:53.269Z,100062.56
2019-06-26T11:38:25.179Z,100037.73
2019-06-26T11:40:57.100Z,100062.30
2019-06-26T11:43:29.034Z,100059.69
2019-06-26T11:46:00.929Z,100054.14
2019-06-26T11:48:32.861Z,100044.83
2019-06-26T11:51:07.037Z,100038.83
2019-06-26T11:53:40.952Z,100055.51
2019-06-26T11:56:13.000Z,100059.27
2019-06-26T11:58:44.999Z,100062.14
2019-06-26T12:01:17.290Z,100062.98
2019-06-26T12:03:50.829Z,100057.30
2019-06-26T12:06:22.904Z,100052.08
2019-06-26T12:08:54.886Z,100057.75
2019-06-26T12:11:28.446Z,100056.02
2019-06-26T12:14:01.972Z,100059.64
2019-06-26T12:16:33.902Z,100053.75
2019-06-26T12:19:05.969Z,100044.14
2019-06-26T12:21:37.896Z,100051.05
2019-06-26T12:24:10.293Z,100052.14
2019-06-26T12:26:44.643Z,100049.63
2019-06-26T12:29:16.611Z,100051.09
2019-06-26T12:31:48.927Z,100055.14
2019-06-26T12:34:20.917Z,100053.02
2019-06-26T12:36:52.888Z,100046.77
2019-06-26T12:39:26.679Z,100045.44
2019-06-26T12:41:58.618Z,100040.30
2019-06-26T12:44:32.379Z,100030.53
2019-06-26T12:47:04.396Z,100029.36
2019-06-26T12:49:36.339Z,100008.09
2019-06-26T12:52:08.282Z,100028.59
2019-06-26T12:54:40.714Z,100035.11
2019-06-26T12:57:12.783Z,100028.52
2019-06-26T12:59:56.707Z,100037.64
2019-06-26T13:02:21.056Z,100031.62
2019-06-26T13:04:53.013Z,100036.11
2019-06-26T13:07:25.453Z,100037.91
2019-06-26T13:09:57.439Z,100027.81
2019-06-26T13:12:29.540Z,100026.48
2019-06-26T13:15:01.581Z,100029.38
2019-06-26T13:17:33.551Z,100028.18
2019-06-26T13:20:09.657Z,100020.88
2019-06-26T13:22:40.692Z,100019.48
2019-06-26T13:25:16.261Z,100030.50
2019-06-26T13:27:48.476Z,100021.92
2019-06-26T13:30:26.843Z,100020.41
2019-06-26T13:32:59.083Z,100017.71
2019-06-26T13:35:31.024Z,100021.09
2019-06-26T13:38:03.517Z,100022.27
2019-06-26T13:40:35.536Z,100017.53
2019-06-26T13:43:07.469Z,100016.51
2019-06-26T13:45:39.783Z,100016.67
2019-06-26T13:48:11.811Z,100021.23
2019-06-26T13:50:43.759Z,100018.27
2019-06-26T13:53:16.009Z,100008.45
2019-06-26T13:55:48.926Z,100014.39
2019-06-26T13:58:21.098Z,100014.39
2019-06-26T14:00:53.112Z,100013.13
2019-06-26T14:03:26.926Z,100017.31
2019-06-26T14:05:58.855Z,100002.50
2019-06-26T14:08:32.918Z,100010.52
2019-06-26T14:11:07.440Z,100007.34
2019-06-26T14:13:41.830Z,100012.91
2019-06-26T14:16:12.316Z,99997.68
2019-06-26T14:18:44.245Z,100010.09
2019-06-26T14:21:25.450Z,100003.50
2019-06-26T14:23:51.620Z,100003.97
2019-06-26T14:26:23.527Z,100012.31
2019-06-26T14:28:55.529Z,100016.86
2019-06-26T14:31:27.449Z,100016.14
2019-06-26T14:33:59.831Z,100003.50
2019-06-26T14:36:31.805Z,100012.09
2019-06-26T14:39:03.899Z,100014.80
2019-06-26T14:41:39.066Z,100006.86
2019-06-26T14:44:12.056Z,100012.07
2019-06-26T14:46:45.166Z,100015.36
2019-06-26T14:49:17.151Z,100007.73
2019-06-26T14:51:49.084Z,100010.58
2019-06-26T14:54:21.143Z,100003.84
2019-06-26T14:56:53.071Z,99999.28
2019-06-26T14:59:25.062Z,100002.33
2019-06-26T15:01:56.978Z,99997.92
2019-06-26T15:04:28.962Z,99992.58
2019-06-26T15:07:00.984Z,99987.50
2019-06-26T15:09:32.947Z,99995.48
2019-06-26T15:12:05.003Z,99988.50
2019-06-26T15:14:37.224Z,99997.52
2019-06-26T15:17:10.623Z,99993.50
2019-06-26T15:19:44.325Z,99989.31
2019-06-26T15:22:16.812Z,99989.59
2019-06-26T15:24:48.941Z,99985.33
2019-06-26T15:27:21.382Z,99980.89
2019-06-26T15:29:53.321Z,99979.48
2019-06-26T15:32:27.241Z,99974.84
2019-06-26T15:35:03.029Z,99973.94
2019-06-26T15:37:40.430Z,99966.00
2019-06-26T15:40:15.934Z,99970.77
2019-06-26T15:42:49.276Z,99969.50
2019-06-26T15:45:21.182Z,99970.76
2019-06-26T15:47:53.186Z,99979.80
2019-06-26T15:50:25.557Z,99978.09
2019-06-26T15:52:57.576Z,99977.75
2019-06-26T15:55:29.485Z,99975.27
2019-06-26T15:58:02.496Z,99974.45
2019-06-26T16:00:35.115Z,99973.66
2019-06-26T16:03:07.273Z,99975.50
2019-06-26T16:05:39.241Z,99975.81
2019-06-26T16:08:12.991Z,99973.91
2019-06-26T16:10:45.050Z,99973.31
2019-06-26T16:13:16.997Z,99967.62
2019-06-26T16:15:48.994Z,99973.38
2019-06-26T16:18:32.049Z,99972.70
2019-06-26T16:21:07.315Z,99972.15
2019-06-26T16:23:39.664Z,99962.84
2019-06-26T16:26:11.695Z,99970.67
2019-06-26T16:28:43.640Z,99968.43
2019-06-26T16:31:15.577Z,99970.09
2019-06-26T16:33:47.527Z,99970.64
2019-06-26T16:36:19.452Z,99967.84
2019-06-26T16:38:53.081Z,99964.98
2019-06-26T16:41:25.001Z,99970.09
2019-06-26T16:43:56.940Z,99967.87
2019-06-26T16:46:28.895Z,99964.84
2019-06-26T16:49:05.038Z,99953.60
2019-06-26T16:51:37.163Z,99948.36
2019-06-26T16:54:09.160Z,99941.42
2019-06-26T16:56:43.005Z,99948.58
2019-06-26T16:59:14.950Z,99941.29
2019-06-26T17:01:47.011Z,99950.13
2019-06-26T17:04:19.046Z,99951.48
2019-06-26T17:06:51.162Z,99946.06
2019-06-26T17:09:23.174Z,99944.50
2019-06-26T17:11:55.408Z,99940.41
2019-06-26T17:14:27.421Z,99939.20
2019-06-26T17:16:59.408Z,99931.98
2019-06-26T17:19:31.443Z,99931.33
2019-06-26T17:22:03.735Z,99929.59
2019-06-26T17:24:36.082Z,99927.03
2019-06-26T17:27:08.361Z,99926.52
2019-06-26T17:29:40.361Z,99917.94
2019-06-26T17:32:12.429Z,99922.77
2019-06-26T17:34:44.588Z,99927.69
2019-06-26T17:37:16.534Z,99920.03
2019-06-26T17:39:48.973Z,99924.98
2019-06-26T17:42:20.908Z,99927.02
2019-06-26T17:44:52.854Z,99927.51
2019-06-26T17:47:26.701Z,99929.02
2019-06-26T17:49:58.674Z,99927.33
2019-06-26T17:52:34.551Z,99931.20
2019-06-26T17:55:04.776Z,99939.00
2019-06-26T17:57:37.242Z,99936.08
2019-06-26T18:00:10.868Z,99940.23
2019-06-26T18:02:43.342Z,99937.33
2019-06-26T18:05:15.492Z,99937.54
2019-06-26T18:07:47.491Z,99942.73
2019-06-26T18:10:19.593Z,99938.16
2019-06-26T18:12:54.847Z,99933.33
2019-06-26T18:15:26.784Z,99932.87
2019-06-26T18:17:58.785Z,99932.19
2019-06-26T18:20:30.746Z,99926.83
2019-06-26T18:23:07.404Z,99922.14
2019-06-26T18:25:37.575Z,99916.70
2019-06-26T18:28:09.942Z,99910.11
2019-06-26T18:30:41.897Z,99918.59
2019-06-26T18:33:13.892Z,99916.19
2019-06-26T18:35:49.815Z,99916.90
2019-06-26T18:38:29.468Z,99914.34
2019-06-26T18:41:02.895Z,99913.84
2019-06-26T18:43:34.881Z,99920.44
2019-06-26T18:46:06.848Z,99928.19
2019-06-26T18:48:40.488Z,99925.98
2019-06-26T18:51:12.467Z,99930.05
2019-06-26T18:53:53.525Z,99931.19
2019-06-26T18:56:18.536Z,99936.20
2019-06-26T18:58:50.530Z,99938.05
2019-06-26T19:01:22.601Z,99934.81
2019-06-26T19:03:54.623Z,99936.30
2019-06-26T19:06:26.734Z,99931.02
2019-06-26T19:08:59.025Z,99926.88
2019-06-26T19:11:31.116Z,99922.53
2019-06-26T19:14:05.015Z,99896.27
2019-06-26T19:16:37.221Z,99934.19
2019-06-26T19:19:12.232Z,99938.70
2019-06-26T19:21:43.057Z,99940.14
2019-06-26T19:24:15.044Z,99940.16
2019-06-26T19:26:47.166Z,99937.86
2019-06-26T19:29:19.300Z,99936.78
2019-06-26T19:31:51.354Z,99939.95
2019-06-26T19:34:23.932Z,99939.09
2019-06-26T19:36:55.999Z,99944.84
2019-06-26T19:39:28.244Z,99944.22
2019-06-26T19:42:00.954Z,99947.55
2019-06-26T19:44:34.364Z,99946.37
2019-06-26T19:47:06.929Z,99954.27
2019-06-26T19:49:38.996Z,99962.37
2019-06-26T19:52:11.055Z,99962.75
2019-06-26T19:54:43.603Z,99966.22
2019-06-26T19:57:15.693Z,99965.42
2019-06-26T19:59:47.794Z,99975.47
2019-06-26T20:02:20.049Z,99976.70
2019-06-26T20:04:52.696Z,99972.04
2019-06-26T20:07:24.710Z,99976.11
2019-06-26T20:10:01.638Z,99979.19
2019-06-26T20:12:32.335Z,99980.45
2019-06-26T20:15:04.634Z,99983.47
2019-06-26T20:17:36.658Z,99977.55
2019-06-26T20:20:08.891Z,99980.41
2019-06-26T20:22:41.062Z,99980.60
2019-06-26T20:25:13.647Z,99985.58
2019-06-26T20:27:45.907Z,99992.17
2019-06-26T20:30:20.638Z,99984.27
2019-06-26T20:32:52.691Z,99982.93
2019-06-26T20:35:25.529Z,99991.48
2019-06-26T20:37:58.087Z,99996.93
2019-06-26T20:40:30.224Z,99996.89
2019-06-26T20:43:03.605Z,99996.61
2019-06-26T20:45:35.999Z,99996.31
2019-06-26T20:48:08.111Z,100000.84
2019-06-26T20:50:40.126Z,99996.69
2019-06-26T20:53:13.495Z,100000.13
2019-06-26T20:55:45.557Z,100014.12
2019-06-26T20:58:20.175Z,100023.26
2019-06-26T21:00:53.312Z,100009.98
2019-06-26T21:03:25.375Z,100014.08
2019-06-26T21:05:57.453Z,100025.31
2019-06-26T21:08:29.824Z,100032.61
2019-06-26T21:11:05.457Z,100027.72
2019-06-26T21:13:38.000Z,100033.36
2019-06-26T21:16:10.057Z,100039.88
2019-06-26T21:18:42.103Z,100046.95
2019-06-26T21:21:14.188Z,100052.23
2019-06-26T21:23:46.183Z,100049.69
2019-06-26T21:26:18.321Z,100049.99
2019-06-26T21:28:50.408Z,100051.12
2019-06-26T21:31:23.827Z,100053.16
2019-06-26T21:33:55.864Z,100042.48
2019-06-26T21:36:27.915Z,100049.63
2019-06-26T21:38:59.906Z,100056.32
2019-06-26T21:41:31.953Z,100054.49
2019-06-26T21:44:05.508Z,100053.92
2019-06-26T21:46:37.533Z,100047.09
2019-06-26T21:49:09.664Z,100039.95
2019-06-26T21:51:42.763Z,100048.64
2019-06-26T21:54:15.089Z,100037.68
2019-06-26T21:57:04.862Z,100043.38
2019-06-26T21:59:56.232Z,100040.13
2019-06-26T22:02:45.959Z,100043.84
2019-06-26T22:05:19.560Z,100045.52
2019-06-26T22:08:09.460Z,100043.89
2019-06-26T22:10:43.625Z,100042.97
2019-06-26T22:13:16.118Z,100033.48
2019-06-26T22:15:49.772Z,100039.08
2019-06-26T22:18:21.837Z,100034.79
2019-06-26T22:20:53.850Z,100033.74
2019-06-26T22:23:27.711Z,100034.75
2019-06-26T22:25:59.749Z,100039.70
2019-06-26T22:28:31.663Z,100038.36
2019-06-26T22:31:03.723Z,100031.20
2019-06-26T22:33:36.077Z,100032.73
2019-06-26T22:36:08.676Z,100041.23
2019-06-26T22:38:40.614Z,100039.97
2019-06-26T22:41:12.545Z,100036.09
2019-06-26T22:43:44.558Z,100038.44
2019-06-26T22:46:17.196Z,100035.50
2019-06-26T22:48:49.629Z,100033.63
2019-06-26T22:51:23.213Z,100031.03
2019-06-26T22:53:55.220Z,100039.36
2019-06-26T22:56:28.877Z,100041.08
2019-06-26T22:59:02.879Z,100035.92
2019-06-26T23:01:35.748Z,100037.15
2019-06-26T23:04:09.110Z,100002.15
2019-06-26T23:06:41.279Z,100033.31
2019-06-26T23:09:14.588Z,100039.34
2019-06-26T23:11:47.056Z,100036.95
2019-06-26T23:14:21.368Z,100037.44
2019-06-26T23:16:55.102Z,100040.80
2019-06-26T23:19:27.505Z,100043.28
2019-06-26T23:22:00.284Z,100033.81
2019-06-26T23:24:38.045Z,100033.98
2019-06-26T23:27:10.586Z,100036.41
2019-06-26T23:29:43.310Z,100028.95
2019-06-26T23:32:16.840Z,100039.44
2019-06-26T23:34:49.126Z,100035.97
2019-06-26T23:37:21.619Z,100036.36
2019-06-26T23:39:54.289Z,100037.59
2019-06-26T23:42:27.062Z,100042.00
2019-06-26T23:44:59.226Z,100033.83
2019-06-26T23:47:31.219Z,100032.40
2019-06-26T23:50:03.589Z,100028.17
2019-06-26T23:52:35.658Z,100026.59
2019-06-26T23:55:08.205Z,100028.42
2019-06-26T23:57:54.644Z,100027.83
